sensor_id;sensor_type;location;lat;lon;timestamp;P1;durP1;ratioP1;P2;durP2;ratioP2
27003;SDS011;14546;47.590;19.022;2023-10-08T00:01:34;11.50;;;4.15;;
27003;SDS011;14546;47.590;19.022;2023-10-08T00:04:00;7.68;;;3.63;;
27003;SDS011;14546;47.590;19.022;2023-10-08T00:06:29;11.02;;;3.95;;
27003;SDS011;14546;47.590;19.022;2023-10-08T00:08:55;12.60;;;4.40;;
27003;SDS011;14546;47.590;19.022;2023-10-08T00:11:34;12.52;;;4.00;;
27003;SDS011;14546;47.590;19.022;2023-10-08T00:14:01;11.05;;;4.47;;
27003;SDS011;14546;47.590;19.022;2023-10-08T00:16:30;9.48;;;4.20;;
27003;SDS011;14546;47.590;19.022;2023-10-08T00:18:58;8.25;;;3.88;;
27003;SDS011;14546;47.590;19.022;2023-10-08T00:21:32;7.97;;;3.38;;
27003;SDS011;14546;47.590;19.022;2023-10-08T00:24:00;11.73;;;4.10;;
27003;SDS011;14546;47.590;19.022;2023-10-08T00:26:32;8.75;;;4.00;;
27003;SDS011;14546;47.590;19.022;2023-10-08T00:29:03;13.98;;;4.10;;
27003;SDS011;14546;47.590;19.022;2023-10-08T00:31:45;10.13;;;3.92;;
27003;SDS011;14546;47.590;19.022;2023-10-08T00:34:12;12.50;;;3.90;;
27003;SDS011;14546;47.590;19.022;2023-10-08T00:36:43;9.50;;;3.75;;
27003;SDS011;14546;47.590;19.022;2023-10-08T00:39:11;13.70;;;3.58;;
27003;SDS011;14546;47.590;19.022;2023-10-08T00:41:47;9.38;;;3.53;;
27003;SDS011;14546;47.590;19.022;2023-10-08T00:44:14;10.57;;;3.75;;
27003;SDS011;14546;47.590;19.022;2023-10-08T00:46:47;18.58;;;3.72;;
27003;SDS011;14546;47.590;19.022;2023-10-08T00:49:13;6.10;;;3.38;;
27003;SDS011;14546;47.590;19.022;2023-10-08T00:51:47;10.48;;;3.80;;
27003;SDS011;14546;47.590;19.022;2023-10-08T00:54:18;18.33;;;3.35;;
27003;SDS011;14546;47.590;19.022;2023-10-08T00:56:47;13.60;;;4.05;;
27003;SDS011;14546;47.590;19.022;2023-10-08T00:59:23;10.75;;;3.65;;
27003;SDS011;14546;47.590;19.022;2023-10-08T01:01:50;8.43;;;4.07;;
27003;SDS011;14546;47.590;19.022;2023-10-08T01:04:20;8.55;;;4.05;;
27003;SDS011;14546;47.590;19.022;2023-10-08T01:06:52;11.48;;;3.90;;
27003;SDS011;14546;47.590;19.022;2023-10-08T01:09:21;9.65;;;3.97;;
27003;SDS011;14546;47.590;19.022;2023-10-08T01:12:09;10.10;;;3.45;;
27003;SDS011;14546;47.590;19.022;2023-10-08T01:14:46;12.10;;;3.67;;
27003;SDS011;14546;47.590;19.022;2023-10-08T01:17:13;10.60;;;3.63;;
27003;SDS011;14546;47.590;19.022;2023-10-08T01:19:44;12.93;;;4.07;;
27003;SDS011;14546;47.590;19.022;2023-10-08T01:22:12;8.02;;;3.58;;
27003;SDS011;14546;47.590;19.022;2023-10-08T01:24:42;13.52;;;3.55;;
27003;SDS011;14546;47.590;19.022;2023-10-08T01:27:08;11.80;;;3.60;;
27003;SDS011;14546;47.590;19.022;2023-10-08T01:29:37;10.30;;;3.70;;
27003;SDS011;14546;47.590;19.022;2023-10-08T01:32:03;10.13;;;3.47;;
27003;SDS011;14546;47.590;19.022;2023-10-08T01:34:35;12.88;;;4.18;;
27003;SDS011;14546;47.590;19.022;2023-10-08T01:37:01;13.98;;;3.47;;
27003;SDS011;14546;47.590;19.022;2023-10-08T01:39:34;6.93;;;3.25;;
27003;SDS011;14546;47.590;19.022;2023-10-08T01:42:00;12.40;;;3.50;;
27003;SDS011;14546;47.590;19.022;2023-10-08T01:44:26;14.50;;;4.30;;
27003;SDS011;14546;47.590;19.022;2023-10-08T01:46:54;7.47;;;3.40;;
27003;SDS011;14546;47.590;19.022;2023-10-08T01:49:23;10.63;;;3.63;;
27003;SDS011;14546;47.590;19.022;2023-10-08T01:51:54;18.02;;;3.85;;
27003;SDS011;14546;47.590;19.022;2023-10-08T01:54:20;9.63;;;3.55;;
27003;SDS011;14546;47.590;19.022;2023-10-08T01:56:46;7.53;;;4.00;;
27003;SDS011;14546;47.590;19.022;2023-10-08T01:59:14;15.88;;;4.55;;
27003;SDS011;14546;47.590;19.022;2023-10-08T02:01:41;9.00;;;3.63;;
27003;SDS011;14546;47.590;19.022;2023-10-08T02:04:07;10.23;;;3.65;;
27003;SDS011;14546;47.590;19.022;2023-10-08T02:06:35;10.65;;;3.97;;
27003;SDS011;14546;47.590;19.022;2023-10-08T02:09:01;12.80;;;4.32;;
27003;SDS011;14546;47.590;19.022;2023-10-08T02:11:44;10.70;;;3.80;;
27003;SDS011;14546;47.590;19.022;2023-10-08T02:14:11;7.28;;;3.25;;
27003;SDS011;14546;47.590;19.022;2023-10-08T02:16:40;12.27;;;3.67;;
27003;SDS011;14546;47.590;19.022;2023-10-08T02:19:07;9.85;;;3.65;;
27003;SDS011;14546;47.590;19.022;2023-10-08T02:21:35;13.43;;;4.05;;
27003;SDS011;14546;47.590;19.022;2023-10-08T02:24:03;10.60;;;4.15;;
27003;SDS011;14546;47.590;19.022;2023-10-08T02:26:29;13.48;;;4.57;;
27003;SDS011;14546;47.590;19.022;2023-10-08T02:28:56;9.88;;;4.50;;
27003;SDS011;14546;47.590;19.022;2023-10-08T02:31:24;12.68;;;3.50;;
27003;SDS011;14546;47.590;19.022;2023-10-08T02:33:50;15.77;;;3.75;;
27003;SDS011;14546;47.590;19.022;2023-10-08T02:36:16;10.32;;;3.80;;
27003;SDS011;14546;47.590;19.022;2023-10-08T02:38:44;12.75;;;3.38;;
27003;SDS011;14546;47.590;19.022;2023-10-08T02:41:15;13.82;;;4.30;;
27003;SDS011;14546;47.590;19.022;2023-10-08T02:43:42;14.02;;;4.00;;
27003;SDS011;14546;47.590;19.022;2023-10-08T02:46:10;16.17;;;3.95;;
27003;SDS011;14546;47.590;19.022;2023-10-08T02:48:40;7.40;;;3.20;;
27003;SDS011;14546;47.590;19.022;2023-10-08T02:51:06;13.75;;;3.20;;
27003;SDS011;14546;47.590;19.022;2023-10-08T02:53:40;10.50;;;2.90;;
27003;SDS011;14546;47.590;19.022;2023-10-08T02:56:09;12.60;;;3.38;;
27003;SDS011;14546;47.590;19.022;2023-10-08T02:58:41;10.65;;;3.53;;
27003;SDS011;14546;47.590;19.022;2023-10-08T03:01:12;14.70;;;3.78;;
27003;SDS011;14546;47.590;19.022;2023-10-08T03:03:40;12.45;;;3.60;;
27003;SDS011;14546;47.590;19.022;2023-10-08T03:06:07;12.05;;;3.92;;
27003;SDS011;14546;47.590;19.022;2023-10-08T03:08:40;21.80;;;3.97;;
27003;SDS011;14546;47.590;19.022;2023-10-08T03:11:10;12.40;;;4.18;;
27003;SDS011;14546;47.590;19.022;2023-10-08T03:13:45;14.00;;;3.45;;
27003;SDS011;14546;47.590;19.022;2023-10-08T03:16:12;10.20;;;3.50;;
27003;SDS011;14546;47.590;19.022;2023-10-08T03:18:38;11.35;;;3.90;;
27003;SDS011;14546;47.590;19.022;2023-10-08T03:21:10;9.25;;;4.35;;
27003;SDS011;14546;47.590;19.022;2023-10-08T03:23:47;11.13;;;3.42;;
27003;SDS011;14546;47.590;19.022;2023-10-08T03:26:13;8.60;;;3.53;;
27003;SDS011;14546;47.590;19.022;2023-10-08T03:29:02;14.18;;;4.05;;
27003;SDS011;14546;47.590;19.022;2023-10-08T03:31:41;13.90;;;3.42;;
27003;SDS011;14546;47.590;19.022;2023-10-08T03:34:13;15.85;;;3.65;;
27003;SDS011;14546;47.590;19.022;2023-10-08T03:36:40;8.48;;;3.25;;
27003;SDS011;14546;47.590;19.022;2023-10-08T03:39:12;11.18;;;3.75;;
27003;SDS011;14546;47.590;19.022;2023-10-08T03:41:42;9.63;;;3.38;;
27003;SDS011;14546;47.590;19.022;2023-10-08T03:44:16;11.15;;;3.58;;
27003;SDS011;14546;47.590;19.022;2023-10-08T03:46:43;9.82;;;4.00;;
27003;SDS011;14546;47.590;19.022;2023-10-08T03:49:12;10.23;;;3.60;;
27003;SDS011;14546;47.590;19.022;2023-10-08T03:51:51;11.13;;;4.20;;
27003;SDS011;14546;47.590;19.022;2023-10-08T03:54:18;9.27;;;3.53;;
27003;SDS011;14546;47.590;19.022;2023-10-08T03:56:49;12.13;;;3.78;;
27003;SDS011;14546;47.590;19.022;2023-10-08T03:59:16;17.63;;;4.57;;
27003;SDS011;14546;47.590;19.022;2023-10-08T04:02:05;7.78;;;3.80;;
27003;SDS011;14546;47.590;19.022;2023-10-08T04:04:43;10.95;;;3.17;;
27003;SDS011;14546;47.590;19.022;2023-10-08T04:07:23;9.75;;;3.65;;
27003;SDS011;14546;47.590;19.022;2023-10-08T04:09:50;15.85;;;3.83;;
27003;SDS011;14546;47.590;19.022;2023-10-08T04:12:31;12.07;;;3.95;;
27003;SDS011;14546;47.590;19.022;2023-10-08T04:15:03;9.13;;;2.88;;
27003;SDS011;14546;47.590;19.022;2023-10-08T04:17:35;8.15;;;3.00;;
27003;SDS011;14546;47.590;19.022;2023-10-08T04:20:09;13.35;;;4.10;;
27003;SDS011;14546;47.590;19.022;2023-10-08T04:22:55;8.90;;;3.05;;
27003;SDS011;14546;47.590;19.022;2023-10-08T04:25:21;12.52;;;3.47;;
27003;SDS011;14546;47.590;19.022;2023-10-08T04:27:47;26.08;;;4.05;;
27003;SDS011;14546;47.590;19.022;2023-10-08T04:30:15;13.60;;;3.13;;
27003;SDS011;14546;47.590;19.022;2023-10-08T04:32:41;24.10;;;3.60;;
27003;SDS011;14546;47.590;19.022;2023-10-08T04:35:07;9.55;;;3.58;;
27003;SDS011;14546;47.590;19.022;2023-10-08T04:37:39;12.93;;;4.03;;
27003;SDS011;14546;47.590;19.022;2023-10-08T04:40:06;9.65;;;3.28;;
27003;SDS011;14546;47.590;19.022;2023-10-08T04:42:41;13.07;;;3.60;;
27003;SDS011;14546;47.590;19.022;2023-10-08T04:45:10;12.13;;;4.10;;
27003;SDS011;14546;47.590;19.022;2023-10-08T04:47:39;15.43;;;3.70;;
27003;SDS011;14546;47.590;19.022;2023-10-08T04:50:08;12.52;;;3.63;;
27003;SDS011;14546;47.590;19.022;2023-10-08T04:52:40;19.40;;;3.58;;
27003;SDS011;14546;47.590;19.022;2023-10-08T04:55:23;11.68;;;4.32;;
27003;SDS011;14546;47.590;19.022;2023-10-08T04:57:54;14.80;;;3.80;;
27003;SDS011;14546;47.590;19.022;2023-10-08T05:00:20;17.88;;;4.40;;
27003;SDS011;14546;47.590;19.022;2023-10-08T05:03:06;10.27;;;3.33;;
27003;SDS011;14546;47.590;19.022;2023-10-08T05:05:38;14.25;;;3.85;;
27003;SDS011;14546;47.590;19.022;2023-10-08T05:08:21;8.70;;;3.47;;
27003;SDS011;14546;47.590;19.022;2023-10-08T05:10:57;9.43;;;3.28;;
27003;SDS011;14546;47.590;19.022;2023-10-08T05:13:39;10.32;;;3.50;;
27003;SDS011;14546;47.590;19.022;2023-10-08T05:16:20;9.68;;;3.45;;
27003;SDS011;14546;47.590;19.022;2023-10-08T05:19:09;8.48;;;3.60;;
27003;SDS011;14546;47.590;19.022;2023-10-08T05:22:11;10.60;;;3.47;;
27003;SDS011;14546;47.590;19.022;2023-10-08T05:24:53;12.73;;;3.20;;
27003;SDS011;14546;47.590;19.022;2023-10-08T05:27:47;8.57;;;3.22;;
27003;SDS011;14546;47.590;19.022;2023-10-08T05:30:14;9.77;;;3.45;;
27003;SDS011;14546;47.590;19.022;2023-10-08T05:33:09;14.70;;;4.35;;
27003;SDS011;14546;47.590;19.022;2023-10-08T05:35:48;15.02;;;3.30;;
27003;SDS011;14546;47.590;19.022;2023-10-08T05:38:16;14.45;;;3.50;;
27003;SDS011;14546;47.590;19.022;2023-10-08T05:40:55;8.75;;;2.95;;
27003;SDS011;14546;47.590;19.022;2023-10-08T05:46:05;10.95;;;3.70;;
27003;SDS011;14546;47.590;19.022;2023-10-08T05:48:55;8.88;;;3.33;;
27003;SDS011;14546;47.590;19.022;2023-10-08T05:51:28;9.88;;;3.78;;
27003;SDS011;14546;47.590;19.022;2023-10-08T05:54:18;8.85;;;3.72;;
27003;SDS011;14546;47.590;19.022;2023-10-08T05:56:51;15.40;;;4.05;;
27003;SDS011;14546;47.590;19.022;2023-10-08T05:59:32;12.93;;;4.28;;
27003;SDS011;14546;47.590;19.022;2023-10-08T06:02:25;8.40;;;3.25;;
27003;SDS011;14546;47.590;19.022;2023-10-08T06:04:59;16.98;;;4.10;;
27003;SDS011;14546;47.590;19.022;2023-10-08T06:07:51;9.25;;;3.53;;
27003;SDS011;14546;47.590;19.022;2023-10-08T06:10:18;14.02;;;4.05;;
27003;SDS011;14546;47.590;19.022;2023-10-08T06:13:00;7.55;;;3.25;;
27003;SDS011;14546;47.590;19.022;2023-10-08T06:15:37;14.68;;;3.83;;
27003;SDS011;14546;47.590;19.022;2023-10-08T06:18:12;13.43;;;3.65;;
27003;SDS011;14546;47.590;19.022;2023-10-08T06:20:40;12.80;;;3.72;;
27003;SDS011;14546;47.590;19.022;2023-10-08T06:23:15;9.23;;;3.65;;
27003;SDS011;14546;47.590;19.022;2023-10-08T06:25:43;15.02;;;3.33;;
27003;SDS011;14546;47.590;19.022;2023-10-08T06:28:13;13.95;;;3.85;;
27003;SDS011;14546;47.590;19.022;2023-10-08T06:30:40;10.77;;;3.17;;
27003;SDS011;14546;47.590;19.022;2023-10-08T06:33:07;9.00;;;3.58;;
27003;SDS011;14546;47.590;19.022;2023-10-08T06:35:33;11.40;;;4.75;;
27003;SDS011;14546;47.590;19.022;2023-10-08T06:38:00;6.68;;;2.97;;
27003;SDS011;14546;47.590;19.022;2023-10-08T06:40:32;14.88;;;3.80;;
27003;SDS011;14546;47.590;19.022;2023-10-08T06:43:07;15.20;;;3.90;;
27003;SDS011;14546;47.590;19.022;2023-10-08T06:45:39;10.50;;;3.70;;
27003;SDS011;14546;47.590;19.022;2023-10-08T06:48:06;8.48;;;3.85;;
27003;SDS011;14546;47.590;19.022;2023-10-08T06:50:32;22.33;;;3.88;;
27003;SDS011;14546;47.590;19.022;2023-10-08T06:52:59;11.60;;;3.28;;
27003;SDS011;14546;47.590;19.022;2023-10-08T06:55:31;11.27;;;3.70;;
27003;SDS011;14546;47.590;19.022;2023-10-08T06:57:58;13.35;;;3.35;;
27003;SDS011;14546;47.590;19.022;2023-10-08T07:00:25;12.35;;;3.40;;
27003;SDS011;14546;47.590;19.022;2023-10-08T07:03:10;10.38;;;3.90;;
27003;SDS011;14546;47.590;19.022;2023-10-08T07:05:39;13.18;;;3.78;;
27003;SDS011;14546;47.590;19.022;2023-10-08T07:08:09;14.80;;;3.70;;
27003;SDS011;14546;47.590;19.022;2023-10-08T07:10:38;14.80;;;3.88;;
27003;SDS011;14546;47.590;19.022;2023-10-08T07:13:07;10.52;;;4.07;;
27003;SDS011;14546;47.590;19.022;2023-10-08T07:15:36;12.90;;;4.00;;
27003;SDS011;14546;47.590;19.022;2023-10-08T07:18:10;5.63;;;3.28;;
27003;SDS011;14546;47.590;19.022;2023-10-08T07:20:38;17.63;;;4.55;;
27003;SDS011;14546;47.590;19.022;2023-10-08T07:23:07;9.65;;;3.88;;
27003;SDS011;14546;47.590;19.022;2023-10-08T07:25:37;9.07;;;3.70;;
27003;SDS011;14546;47.590;19.022;2023-10-08T07:28:04;12.55;;;4.00;;
27003;SDS011;14546;47.590;19.022;2023-10-08T07:30:36;9.00;;;3.95;;
27003;SDS011;14546;47.590;19.022;2023-10-08T07:33:04;13.80;;;4.10;;
27003;SDS011;14546;47.590;19.022;2023-10-08T07:35:30;18.30;;;3.33;;
27003;SDS011;14546;47.590;19.022;2023-10-08T07:38:03;6.97;;;3.40;;
27003;SDS011;14546;47.590;19.022;2023-10-08T07:40:34;10.95;;;4.05;;
27003;SDS011;14546;47.590;19.022;2023-10-08T07:43:02;13.27;;;3.55;;
27003;SDS011;14546;47.590;19.022;2023-10-08T07:45:33;9.60;;;4.18;;
27003;SDS011;14546;47.590;19.022;2023-10-08T07:48:00;7.93;;;2.97;;
27003;SDS011;14546;47.590;19.022;2023-10-08T07:50:26;12.32;;;3.75;;
27003;SDS011;14546;47.590;19.022;2023-10-08T07:52:54;7.75;;;3.47;;
27003;SDS011;14546;47.590;19.022;2023-10-08T07:55:21;12.57;;;3.67;;
27003;SDS011;14546;47.590;19.022;2023-10-08T07:57:47;16.65;;;3.53;;
27003;SDS011;14546;47.590;19.022;2023-10-08T08:00:13;10.10;;;3.53;;
27003;SDS011;14546;47.590;19.022;2023-10-08T08:02:51;14.88;;;4.10;;
27003;SDS011;14546;47.590;19.022;2023-10-08T08:05:18;16.33;;;3.55;;
27003;SDS011;14546;47.590;19.022;2023-10-08T08:07:45;10.98;;;3.78;;
27003;SDS011;14546;47.590;19.022;2023-10-08T08:10:11;15.82;;;3.90;;
27003;SDS011;14546;47.590;19.022;2023-10-08T08:12:39;10.88;;;3.42;;
27003;SDS011;14546;47.590;19.022;2023-10-08T08:15:05;28.35;;;3.80;;
27003;SDS011;14546;47.590;19.022;2023-10-08T08:17:40;18.15;;;3.60;;
27003;SDS011;14546;47.590;19.022;2023-10-08T08:20:06;11.95;;;3.60;;
27003;SDS011;14546;47.590;19.022;2023-10-08T08:22:43;15.48;;;3.58;;
27003;SDS011;14546;47.590;19.022;2023-10-08T08:25:19;10.45;;;3.60;;
27003;SDS011;14546;47.590;19.022;2023-10-08T08:27:59;14.25;;;3.78;;
27003;SDS011;14546;47.590;19.022;2023-10-08T08:30:25;7.97;;;2.97;;
27003;SDS011;14546;47.590;19.022;2023-10-08T08:32:53;18.02;;;3.72;;
27003;SDS011;14546;47.590;19.022;2023-10-08T08:35:21;10.88;;;3.53;;
27003;SDS011;14546;47.590;19.022;2023-10-08T08:37:47;10.77;;;3.65;;
27003;SDS011;14546;47.590;19.022;2023-10-08T08:40:14;18.75;;;4.20;;
27003;SDS011;14546;47.590;19.022;2023-10-08T08:42:50;11.00;;;3.58;;
27003;SDS011;14546;47.590;19.022;2023-10-08T08:45:23;9.13;;;3.47;;
27003;SDS011;14546;47.590;19.022;2023-10-08T08:47:50;19.40;;;3.55;;
27003;SDS011;14546;47.590;19.022;2023-10-08T08:50:20;16.70;;;4.07;;
27003;SDS011;14546;47.590;19.022;2023-10-08T08:52:46;10.25;;;3.42;;
27003;SDS011;14546;47.590;19.022;2023-10-08T08:55:13;9.02;;;3.00;;
27003;SDS011;14546;47.590;19.022;2023-10-08T08:57:41;14.80;;;3.55;;
27003;SDS011;14546;47.590;19.022;2023-10-08T09:00:09;14.98;;;3.42;;
27003;SDS011;14546;47.590;19.022;2023-10-08T09:02:37;19.85;;;3.75;;
27003;SDS011;14546;47.590;19.022;2023-10-08T09:05:03;11.20;;;3.42;;
27003;SDS011;14546;47.590;19.022;2023-10-08T09:07:59;17.00;;;3.38;;
27003;SDS011;14546;47.590;19.022;2023-10-08T09:10:28;13.77;;;3.40;;
27003;SDS011;14546;47.590;19.022;2023-10-08T09:12:54;12.10;;;3.53;;
27003;SDS011;14546;47.590;19.022;2023-10-08T09:15:27;16.17;;;3.67;;
27003;SDS011;14546;47.590;19.022;2023-10-08T09:17:54;13.32;;;3.25;;
27003;SDS011;14546;47.590;19.022;2023-10-08T09:20:20;18.20;;;4.00;;
27003;SDS011;14546;47.590;19.022;2023-10-08T09:23:08;11.23;;;3.40;;
27003;SDS011;14546;47.590;19.022;2023-10-08T09:25:36;10.40;;;3.33;;
27003;SDS011;14546;47.590;19.022;2023-10-08T09:28:02;15.38;;;3.25;;
27003;SDS011;14546;47.590;19.022;2023-10-08T09:30:32;9.02;;;3.45;;
27003;SDS011;14546;47.590;19.022;2023-10-08T09:33:03;15.85;;;3.60;;
27003;SDS011;14546;47.590;19.022;2023-10-08T09:35:29;10.55;;;3.47;;
27003;SDS011;14546;47.590;19.022;2023-10-08T09:37:56;16.17;;;3.35;;
27003;SDS011;14546;47.590;19.022;2023-10-08T09:40:23;16.98;;;3.33;;
27003;SDS011;14546;47.590;19.022;2023-10-08T09:42:50;13.30;;;4.00;;
27003;SDS011;14546;47.590;19.022;2023-10-08T09:45:17;16.27;;;3.70;;
27003;SDS011;14546;47.590;19.022;2023-10-08T09:47:54;10.65;;;3.33;;
27003;SDS011;14546;47.590;19.022;2023-10-08T09:50:30;15.75;;;4.10;;
27003;SDS011;14546;47.590;19.022;2023-10-08T09:55:33;16.00;;;4.40;;
27003;SDS011;14546;47.590;19.022;2023-10-08T09:57:59;13.73;;;4.15;;
27003;SDS011;14546;47.590;19.022;2023-10-08T10:00:26;18.52;;;4.60;;
27003;SDS011;14546;47.590;19.022;2023-10-08T10:03:05;8.00;;;3.97;;
27003;SDS011;14546;47.590;19.022;2023-10-08T10:05:32;15.77;;;3.70;;
27003;SDS011;14546;47.590;19.022;2023-10-08T10:08:04;8.98;;;3.58;;
27003;SDS011;14546;47.590;19.022;2023-10-08T10:10:31;8.68;;;2.83;;
27003;SDS011;14546;47.590;19.022;2023-10-08T10:13:02;7.78;;;3.22;;
27003;SDS011;14546;47.590;19.022;2023-10-08T10:15:29;8.55;;;2.67;;
27003;SDS011;14546;47.590;19.022;2023-10-08T10:20:55;12.07;;;2.72;;
27003;SDS011;14546;47.590;19.022;2023-10-08T10:23:38;7.43;;;2.45;;
27003;SDS011;14546;47.590;19.022;2023-10-08T10:26:05;5.57;;;2.33;;
27003;SDS011;14546;47.590;19.022;2023-10-08T10:29:17;8.75;;;2.00;;
27003;SDS011;14546;47.590;19.022;2023-10-08T10:34:12;2.63;;;1.02;;
27003;SDS011;14546;47.590;19.022;2023-10-08T10:36:41;0.70;;;0.57;;
27003;SDS011;14546;47.590;19.022;2023-10-08T10:39:08;9.82;;;1.13;;
27003;SDS011;14546;47.590;19.022;2023-10-08T10:41:59;4.10;;;0.90;;
27003;SDS011;14546;47.590;19.022;2023-10-08T10:44:29;3.58;;;0.82;;
27003;SDS011;14546;47.590;19.022;2023-10-08T10:46:56;4.10;;;1.15;;
27003;SDS011;14546;47.590;19.022;2023-10-08T10:49:43;1.63;;;0.70;;
27003;SDS011;14546;47.590;19.022;2023-10-08T10:52:15;2.00;;;0.70;;
27003;SDS011;14546;47.590;19.022;2023-10-08T10:55:05;1.15;;;0.52;;
27003;SDS011;14546;47.590;19.022;2023-10-08T10:57:55;3.25;;;0.60;;
27003;SDS011;14546;47.590;19.022;2023-10-08T11:00:27;2.30;;;0.40;;
27003;SDS011;14546;47.590;19.022;2023-10-08T11:03:14;0.60;;;0.40;;
27003;SDS011;14546;47.590;19.022;2023-10-08T11:05:49;0.32;;;0.32;;
27003;SDS011;14546;47.590;19.022;2023-10-08T11:08:16;0.77;;;0.40;;
27003;SDS011;14546;47.590;19.022;2023-10-08T11:10:43;1.52;;;0.45;;
27003;SDS011;14546;47.590;19.022;2023-10-08T11:13:16;0.85;;;0.40;;
27003;SDS011;14546;47.590;19.022;2023-10-08T11:15:43;2.58;;;0.82;;
27003;SDS011;14546;47.590;19.022;2023-10-08T11:18:14;1.77;;;0.50;;
27003;SDS011;14546;47.590;19.022;2023-10-08T11:20:40;2.92;;;0.75;;
27003;SDS011;14546;47.590;19.022;2023-10-08T11:23:31;0.25;;;0.15;;
27003;SDS011;14546;47.590;19.022;2023-10-08T11:25:58;0.68;;;0.20;;
27003;SDS011;14546;47.590;19.022;2023-10-08T11:28:46;0.93;;;0.50;;
27003;SDS011;14546;47.590;19.022;2023-10-08T11:31:15;0.45;;;0.15;;
27003;SDS011;14546;47.590;19.022;2023-10-08T11:33:46;1.00;;;0.20;;
27003;SDS011;14546;47.590;19.022;2023-10-08T11:36:22;9.05;;;0.80;;
27003;SDS011;14546;47.590;19.022;2023-10-08T11:38:56;1.45;;;0.30;;
27003;SDS011;14546;47.590;19.022;2023-10-08T11:41:32;2.45;;;0.30;;
27003;SDS011;14546;47.590;19.022;2023-10-08T11:44:16;6.38;;;1.58;;
27003;SDS011;14546;47.590;19.022;2023-10-08T11:46:47;1.75;;;0.20;;
27003;SDS011;14546;47.590;19.022;2023-10-08T11:49:17;1.40;;;0.77;;
27003;SDS011;14546;47.590;19.022;2023-10-08T11:51:44;3.33;;;1.33;;
27003;SDS011;14546;47.590;19.022;2023-10-08T11:54:13;1.95;;;0.70;;
27003;SDS011;14546;47.590;19.022;2023-10-08T11:56:39;1.63;;;0.30;;
27003;SDS011;14546;47.590;19.022;2023-10-08T11:59:06;1.65;;;0.50;;
27003;SDS011;14546;47.590;19.022;2023-10-08T12:01:36;3.03;;;0.70;;
27003;SDS011;14546;47.590;19.022;2023-10-08T12:04:07;0.55;;;0.40;;
27003;SDS011;14546;47.590;19.022;2023-10-08T12:06:38;1.85;;;0.50;;
27003;SDS011;14546;47.590;19.022;2023-10-08T12:09:04;1.60;;;0.60;;
27003;SDS011;14546;47.590;19.022;2023-10-08T12:11:37;2.03;;;0.68;;
27003;SDS011;14546;47.590;19.022;2023-10-08T12:14:04;3.65;;;0.80;;
27003;SDS011;14546;47.590;19.022;2023-10-08T12:16:30;2.80;;;0.40;;
27003;SDS011;14546;47.590;19.022;2023-10-08T12:19:00;3.40;;;0.60;;
27003;SDS011;14546;47.590;19.022;2023-10-08T12:21:27;2.03;;;0.70;;
27003;SDS011;14546;47.590;19.022;2023-10-08T12:23:59;0.55;;;0.40;;
27003;SDS011;14546;47.590;19.022;2023-10-08T12:26:30;3.10;;;0.40;;
27003;SDS011;14546;47.590;19.022;2023-10-08T12:28:57;2.83;;;0.57;;
27003;SDS011;14546;47.590;19.022;2023-10-08T12:31:23;2.85;;;0.70;;
27003;SDS011;14546;47.590;19.022;2023-10-08T12:33:50;2.70;;;0.40;;
27003;SDS011;14546;47.590;19.022;2023-10-08T12:36:26;1.10;;;0.45;;
27003;SDS011;14546;47.590;19.022;2023-10-08T12:38:57;0.73;;;0.40;;
27003;SDS011;14546;47.590;19.022;2023-10-08T12:41:24;2.03;;;0.35;;
27003;SDS011;14546;47.590;19.022;2023-10-08T12:43:53;2.85;;;1.08;;
27003;SDS011;14546;47.590;19.022;2023-10-08T12:46:20;2.83;;;0.70;;
27003;SDS011;14546;47.590;19.022;2023-10-08T12:48:52;2.30;;;0.20;;
27003;SDS011;14546;47.590;19.022;2023-10-08T12:51:20;4.95;;;0.30;;
27003;SDS011;14546;47.590;19.022;2023-10-08T12:53:50;0.63;;;0.40;;
27003;SDS011;14546;47.590;19.022;2023-10-08T12:56:27;0.60;;;0.32;;
27003;SDS011;14546;47.590;19.022;2023-10-08T12:59:10;0.57;;;0.55;;
27003;SDS011;14546;47.590;19.022;2023-10-08T13:01:45;3.22;;;0.52;;
27003;SDS011;14546;47.590;19.022;2023-10-08T13:04:16;2.42;;;0.40;;
27003;SDS011;14546;47.590;19.022;2023-10-08T13:06:51;2.10;;;0.40;;
27003;SDS011;14546;47.590;19.022;2023-10-08T13:09:22;2.28;;;0.60;;
27003;SDS011;14546;47.590;19.022;2023-10-08T13:11:48;5.15;;;0.73;;
27003;SDS011;14546;47.590;19.022;2023-10-08T13:14:15;2.15;;;0.88;;
27003;SDS011;14546;47.590;19.022;2023-10-08T13:16:41;1.58;;;0.52;;
27003;SDS011;14546;47.590;19.022;2023-10-08T13:19:10;1.30;;;0.55;;
27003;SDS011;14546;47.590;19.022;2023-10-08T13:21:36;1.27;;;0.90;;
27003;SDS011;14546;47.590;19.022;2023-10-08T13:24:03;1.42;;;0.70;;
27003;SDS011;14546;47.590;19.022;2023-10-08T13:26:34;0.73;;;0.55;;
27003;SDS011;14546;47.590;19.022;2023-10-08T13:29:02;2.35;;;0.70;;
27003;SDS011;14546;47.590;19.022;2023-10-08T13:31:29;1.00;;;0.60;;
27003;SDS011;14546;47.590;19.022;2023-10-08T13:33:55;3.38;;;0.60;;
27003;SDS011;14546;47.590;19.022;2023-10-08T13:36:22;1.20;;;0.60;;
27003;SDS011;14546;47.590;19.022;2023-10-08T13:38:49;0.77;;;0.57;;
27003;SDS011;14546;47.590;19.022;2023-10-08T13:41:17;7.18;;;0.40;;
27003;SDS011;14546;47.590;19.022;2023-10-08T13:43:49;3.60;;;0.50;;
27003;SDS011;14546;47.590;19.022;2023-10-08T13:46:27;2.03;;;0.63;;
27003;SDS011;14546;47.590;19.022;2023-10-08T13:48:56;3.60;;;0.57;;
27003;SDS011;14546;47.590;19.022;2023-10-08T13:51:23;0.70;;;0.70;;
27003;SDS011;14546;47.590;19.022;2023-10-08T13:53:51;1.10;;;0.68;;
27003;SDS011;14546;47.590;19.022;2023-10-08T13:56:18;1.88;;;0.80;;
27003;SDS011;14546;47.590;19.022;2023-10-08T13:58:46;3.00;;;1.05;;
27003;SDS011;14546;47.590;19.022;2023-10-08T14:01:15;3.55;;;0.77;;
27003;SDS011;14546;47.590;19.022;2023-10-08T14:03:45;1.45;;;0.80;;
27003;SDS011;14546;47.590;19.022;2023-10-08T14:06:12;1.52;;;0.85;;
27003;SDS011;14546;47.590;19.022;2023-10-08T14:08:39;2.22;;;1.00;;
27003;SDS011;14546;47.590;19.022;2023-10-08T14:11:09;1.55;;;0.85;;
27003;SDS011;14546;47.590;19.022;2023-10-08T14:13:38;4.90;;;1.40;;
27003;SDS011;14546;47.590;19.022;2023-10-08T14:16:08;8.85;;;2.08;;
27003;SDS011;14546;47.590;19.022;2023-10-08T14:18:36;2.55;;;1.25;;
27003;SDS011;14546;47.590;19.022;2023-10-08T14:21:16;2.30;;;1.00;;
27003;SDS011;14546;47.590;19.022;2023-10-08T14:23:43;1.67;;;0.82;;
27003;SDS011;14546;47.590;19.022;2023-10-08T14:26:10;3.20;;;0.90;;
27003;SDS011;14546;47.590;19.022;2023-10-08T14:28:36;11.75;;;1.27;;
27003;SDS011;14546;47.590;19.022;2023-10-08T14:31:09;2.00;;;1.30;;
27003;SDS011;14546;47.590;19.022;2023-10-08T14:33:42;5.38;;;1.10;;
27003;SDS011;14546;47.590;19.022;2023-10-08T14:36:23;4.47;;;1.98;;
27003;SDS011;14546;47.590;19.022;2023-10-08T14:39:08;5.88;;;1.50;;
27003;SDS011;14546;47.590;19.022;2023-10-08T14:41:53;2.75;;;1.30;;
27003;SDS011;14546;47.590;19.022;2023-10-08T14:44:39;2.03;;;1.15;;
27003;SDS011;14546;47.590;19.022;2023-10-08T14:47:06;9.02;;;2.58;;
27003;SDS011;14546;47.590;19.022;2023-10-08T14:49:32;21.95;;;2.08;;
27003;SDS011;14546;47.590;19.022;2023-10-08T14:52:00;2.67;;;1.40;;
27003;SDS011;14546;47.590;19.022;2023-10-08T14:54:29;3.67;;;1.85;;
27003;SDS011;14546;47.590;19.022;2023-10-08T14:56:56;2.90;;;1.30;;
27003;SDS011;14546;47.590;19.022;2023-10-08T14:59:23;4.32;;;1.65;;
27003;SDS011;14546;47.590;19.022;2023-10-08T15:01:49;2.90;;;1.38;;
27003;SDS011;14546;47.590;19.022;2023-10-08T15:04:16;4.15;;;1.30;;